sensor_id;sensor_type;location;lat;lon;timestamp;temperature;humidity
44990;DHT22;30723;51.206;3.326;2022-12-18T00:00:47;-2.00;99.90
44990;DHT22;30723;51.206;3.326;2022-12-18T00:03:16;-2.00;99.90
44990;DHT22;30723;51.206;3.326;2022-12-18T00:05:52;-2.10;99.90
44990;DHT22;30723;51.206;3.326;2022-12-18T00:08:19;-2.00;99.90
44990;DHT22;30723;51.206;3.326;2022-12-18T00:10:45;-2.00;99.90
44990;DHT22;30723;51.206;3.326;2022-12-18T00:13:11;-2.00;99.90
44990;DHT22;30723;51.206;3.326;2022-12-18T00:15:38;-2.10;99.90
44990;DHT22;30723;51.206;3.326;2022-12-18T00:18:05;-2.20;99.90
44990;DHT22;30723;51.206;3.326;2022-12-18T00:20:35;-2.20;99.90
44990;DHT22;30723;51.206;3.326;2022-12-18T00:23:01;-2.20;99.90
44990;DHT22;30723;51.206;3.326;2022-12-18T00:25:26;-2.20;99.90
44990;DHT22;30723;51.206;3.326;2022-12-18T00:27:52;-2.20;99.90
44990;DHT22;30723;51.206;3.326;2022-12-18T00:30:18;-2.20;99.90
44990;DHT22;30723;51.206;3.326;2022-12-18T00:32:43;-2.20;99.90
44990;DHT22;30723;51.206;3.326;2022-12-18T00:35:09;-2.10;99.90
44990;DHT22;30723;51.206;3.326;2022-12-18T00:37:35;-2.20;99.90
44990;DHT22;30723;51.206;3.326;2022-12-18T00:40:02;-2.30;99.90
44990;DHT22;30723;51.206;3.326;2022-12-18T00:42:27;-2.30;99.90
44990;DHT22;30723;51.206;3.326;2022-12-18T00:45:12;-2.40;99.90
44990;DHT22;30723;51.206;3.326;2022-12-18T00:47:38;-2.40;99.90
44990;DHT22;30723;51.206;3.326;2022-12-18T00:50:04;-2.40;99.90
44990;DHT22;30723;51.206;3.326;2022-12-18T00:52:30;-2.50;99.90
44990;DHT22;30723;51.206;3.326;2022-12-18T00:54:55;-2.50;99.90
44990;DHT22;30723;51.206;3.326;2022-12-18T00:57:21;-2.60;99.90
44990;DHT22;30723;51.206;3.326;2022-12-18T00:59:47;-2.70;99.90
44990;DHT22;30723;51.206;3.326;2022-12-18T01:02:13;-2.80;99.90
44990;DHT22;30723;51.206;3.326;2022-12-18T01:04:38;-2.80;99.90
44990;DHT22;30723;51.206;3.326;2022-12-18T01:07:04;-2.90;99.90
44990;DHT22;30723;51.206;3.326;2022-12-18T01:09:30;-3.00;99.90
44990;DHT22;30723;51.206;3.326;2022-12-18T01:11:55;-3.00;99.90
44990;DHT22;30723;51.206;3.326;2022-12-18T01:14:21;-3.10;99.90
44990;DHT22;30723;51.206;3.326;2022-12-18T01:16:47;-3.10;99.90
44990;DHT22;30723;51.206;3.326;2022-12-18T01:19:13;-2.90;99.90
44990;DHT22;30723;51.206;3.326;2022-12-18T01:21:39;-3.00;99.90
44990;DHT22;30723;51.206;3.326;2022-12-18T01:24:05;-3.00;99.90
44990;DHT22;30723;51.206;3.326;2022-12-18T01:26:30;-3.20;99.90
44990;DHT22;30723;51.206;3.326;2022-12-18T01:28:56;-3.10;99.90
44990;DHT22;30723;51.206;3.326;2022-12-18T01:31:25;-3.20;99.90
44990;DHT22;30723;51.206;3.326;2022-12-18T01:33:52;-3.10;99.90
44990;DHT22;30723;51.206;3.326;2022-12-18T01:36:26;-3.00;99.90
44990;DHT22;30723;51.206;3.326;2022-12-18T01:38:52;-2.80;99.90
44990;DHT22;30723;51.206;3.326;2022-12-18T01:41:26;-2.70;99.90
44990;DHT22;30723;51.206;3.326;2022-12-18T01:47:35;-2.70;99.90
44990;DHT22;30723;51.206;3.326;2022-12-18T01:50:20;-2.80;99.90
44990;DHT22;30723;51.206;3.326;2022-12-18T01:52:53;-2.90;99.90
44990;DHT22;30723;51.206;3.326;2022-12-18T01:55:22;-3.10;99.90
44990;DHT22;30723;51.206;3.326;2022-12-18T01:57:51;-3.20;99.90
44990;DHT22;30723;51.206;3.326;2022-12-18T02:00:21;-3.20;99.90
44990;DHT22;30723;51.206;3.326;2022-12-18T02:02:47;-3.40;99.90
44990;DHT22;30723;51.206;3.326;2022-12-18T02:28:00;-3.60;99.90
44990;DHT22;30723;51.206;3.326;2022-12-18T02:30:29;-3.60;99.90
44990;DHT22;30723;51.206;3.326;2022-12-18T02:32:57;-3.70;99.90
44990;DHT22;30723;51.206;3.326;2022-12-18T02:35:27;-3.70;99.90
44990;DHT22;30723;51.206;3.326;2022-12-18T02:37:55;-3.80;99.90
44990;DHT22;30723;51.206;3.326;2022-12-18T02:40:24;-3.80;99.90
44990;DHT22;30723;51.206;3.326;2022-12-18T02:42:50;-3.80;99.90
44990;DHT22;30723;51.206;3.326;2022-12-18T02:45:16;-3.80;99.90
44990;DHT22;30723;51.206;3.326;2022-12-18T02:47:45;-3.80;99.90
44990;DHT22;30723;51.206;3.326;2022-12-18T02:50:31;-3.70;99.90
44990;DHT22;30723;51.206;3.326;2022-12-18T02:53:35;-3.80;99.90
44990;DHT22;30723;51.206;3.326;2022-12-18T02:56:19;-3.80;99.90
44990;DHT22;30723;51.206;3.326;2022-12-18T03:01:57;-3.90;99.90
44990;DHT22;30723;51.206;3.326;2022-12-18T03:04:29;-3.90;99.90
44990;DHT22;30723;51.206;3.326;2022-12-18T03:06:58;-4.00;99.90
44990;DHT22;30723;51.206;3.326;2022-12-18T03:09:33;-4.00;99.90
44990;DHT22;30723;51.206;3.326;2022-12-18T03:12:18;-4.00;99.90
44990;DHT22;30723;51.206;3.326;2022-12-18T03:15:08;-4.00;99.90
44990;DHT22;30723;51.206;3.326;2022-12-18T03:17:36;-4.10;99.90
44990;DHT22;30723;51.206;3.326;2022-12-18T03:20:12;-4.10;99.90
44990;DHT22;30723;51.206;3.326;2022-12-18T03:22:38;-4.20;99.90
44990;DHT22;30723;51.206;3.326;2022-12-18T03:25:07;-4.20;99.90
44990;DHT22;30723;51.206;3.326;2022-12-18T03:27:35;-4.20;99.90
44990;DHT22;30723;51.206;3.326;2022-12-18T03:30:08;-4.20;99.90
44990;DHT22;30723;51.206;3.326;2022-12-18T03:32:47;-4.20;99.90
44990;DHT22;30723;51.206;3.326;2022-12-18T03:35:19;-4.20;99.90
44990;DHT22;30723;51.206;3.326;2022-12-18T03:37:46;-4.20;99.90
44990;DHT22;30723;51.206;3.326;2022-12-18T03:40:12;-4.20;99.90
44990;DHT22;30723;51.206;3.326;2022-12-18T03:42:53;-4.10;99.90
44990;DHT22;30723;51.206;3.326;2022-12-18T03:45:31;-4.10;99.90
44990;DHT22;30723;51.206;3.326;2022-12-18T03:50:36;-4.10;99.90
44990;DHT22;30723;51.206;3.326;2022-12-18T03:55:29;-4.10;99.90
44990;DHT22;30723;51.206;3.326;2022-12-18T03:57:56;-4.00;99.90
44990;DHT22;30723;51.206;3.326;2022-12-18T04:00:22;-3.90;99.90
44990;DHT22;30723;51.206;3.326;2022-12-18T04:02:51;-3.90;99.90
44990;DHT22;30723;51.206;3.326;2022-12-18T04:05:18;-3.90;99.90
44990;DHT22;30723;51.206;3.326;2022-12-18T04:07:45;-3.90;99.90
44990;DHT22;30723;51.206;3.326;2022-12-18T04:10:13;-3.80;99.90
44990;DHT22;30723;51.206;3.326;2022-12-18T04:12:39;-3.80;99.90
44990;DHT22;30723;51.206;3.326;2022-12-18T04:15:05;-3.80;99.90
44990;DHT22;30723;51.206;3.326;2022-12-18T04:17:31;-3.70;99.90
44990;DHT22;30723;51.206;3.326;2022-12-18T04:19:57;-3.80;99.90
44990;DHT22;30723;51.206;3.326;2022-12-18T04:22:22;-3.80;99.90
44990;DHT22;30723;51.206;3.326;2022-12-18T04:24:48;-3.80;99.90
44990;DHT22;30723;51.206;3.326;2022-12-18T04:27:14;-3.70;99.90
44990;DHT22;30723;51.206;3.326;2022-12-18T04:29:39;-3.80;99.90
44990;DHT22;30723;51.206;3.326;2022-12-18T04:32:05;-3.80;99.90
44990;DHT22;30723;51.206;3.326;2022-12-18T04:34:31;-3.80;99.90
44990;DHT22;30723;51.206;3.326;2022-12-18T04:36:56;-3.90;99.90
44990;DHT22;30723;51.206;3.326;2022-12-18T04:39:22;-4.00;99.90
44990;DHT22;30723;51.206;3.326;2022-12-18T04:41:47;-4.00;99.90
44990;DHT22;30723;51.206;3.326;2022-12-18T04:44:13;-4.00;99.90
44990;DHT22;30723;51.206;3.326;2022-12-18T04:46:39;-4.00;99.90
44990;DHT22;30723;51.206;3.326;2022-12-18T04:49:04;-4.00;99.90
44990;DHT22;30723;51.206;3.326;2022-12-18T04:51:30;-4.00;99.90
44990;DHT22;30723;51.206;3.326;2022-12-18T04:53:56;-4.10;99.90
44990;DHT22;30723;51.206;3.326;2022-12-18T04:56:21;-4.00;99.90
44990;DHT22;30723;51.206;3.326;2022-12-18T04:58:47;-4.00;99.90
44990;DHT22;30723;51.206;3.326;2022-12-18T05:01:13;-4.00;99.90
44990;DHT22;30723;51.206;3.326;2022-12-18T05:03:39;-4.00;99.90
44990;DHT22;30723;51.206;3.326;2022-12-18T05:06:05;-3.90;99.90
44990;DHT22;30723;51.206;3.326;2022-12-18T05:08:31;-3.90;99.90
44990;DHT22;30723;51.206;3.326;2022-12-18T05:11:01;-4.00;99.90
44990;DHT22;30723;51.206;3.326;2022-12-18T05:13:28;-4.00;99.90
44990;DHT22;30723;51.206;3.326;2022-12-18T05:15:54;-4.00;99.90
44990;DHT22;30723;51.206;3.326;2022-12-18T05:18:19;-4.00;99.90
44990;DHT22;30723;51.206;3.326;2022-12-18T05:20:45;-4.10;99.90
44990;DHT22;30723;51.206;3.326;2022-12-18T05:23:11;-4.00;99.90
44990;DHT22;30723;51.206;3.326;2022-12-18T05:25:36;-4.00;99.90
44990;DHT22;30723;51.206;3.326;2022-12-18T05:28:02;-4.10;99.90
44990;DHT22;30723;51.206;3.326;2022-12-18T05:30:28;-4.00;99.90
44990;DHT22;30723;51.206;3.326;2022-12-18T05:32:53;-4.00;99.90
44990;DHT22;30723;51.206;3.326;2022-12-18T05:35:19;-4.00;99.90
44990;DHT22;30723;51.206;3.326;2022-12-18T05:37:45;-4.00;99.90
44990;DHT22;30723;51.206;3.326;2022-12-18T05:40:10;-4.00;99.90
44990;DHT22;30723;51.206;3.326;2022-12-18T05:42:36;-4.10;99.90
44990;DHT22;30723;51.206;3.326;2022-12-18T05:45:02;-4.20;99.90
44990;DHT22;30723;51.206;3.326;2022-12-18T05:47:28;-4.20;99.90
44990;DHT22;30723;51.206;3.326;2022-12-18T05:49:54;-4.20;99.90
44990;DHT22;30723;51.206;3.326;2022-12-18T05:52:20;-4.20;99.90
44990;DHT22;30723;51.206;3.326;2022-12-18T05:54:45;-4.20;99.90
44990;DHT22;30723;51.206;3.326;2022-12-18T05:57:11;-4.20;99.90
44990;DHT22;30723;51.206;3.326;2022-12-18T05:59:36;-4.20;99.90
44990;DHT22;30723;51.206;3.326;2022-12-18T06:02:02;-4.20;99.90
44990;DHT22;30723;51.206;3.326;2022-12-18T06:04:28;-4.20;99.90
44990;DHT22;30723;51.206;3.326;2022-12-18T06:06:54;-4.20;99.90
44990;DHT22;30723;51.206;3.326;2022-12-18T06:09:19;-4.30;99.90
44990;DHT22;30723;51.206;3.326;2022-12-18T06:11:45;-4.30;99.90
44990;DHT22;30723;51.206;3.326;2022-12-18T06:14:10;-4.30;99.90
44990;DHT22;30723;51.206;3.326;2022-12-18T06:16:36;-4.30;99.90
44990;DHT22;30723;51.206;3.326;2022-12-18T06:19:03;-4.20;99.90
44990;DHT22;30723;51.206;3.326;2022-12-18T06:21:30;-4.20;99.90
44990;DHT22;30723;51.206;3.326;2022-12-18T06:23:56;-4.10;99.90
44990;DHT22;30723;51.206;3.326;2022-12-18T06:26:23;-4.10;99.90
44990;DHT22;30723;51.206;3.326;2022-12-18T06:28:49;-4.10;99.90
44990;DHT22;30723;51.206;3.326;2022-12-18T06:31:14;-4.10;99.90
44990;DHT22;30723;51.206;3.326;2022-12-18T06:33:40;-4.10;99.90
44990;DHT22;30723;51.206;3.326;2022-12-18T06:36:10;-4.10;99.90
44990;DHT22;30723;51.206;3.326;2022-12-18T06:38:37;-4.10;99.90
44990;DHT22;30723;51.206;3.326;2022-12-18T06:41:10;-4.10;99.90
44990;DHT22;30723;51.206;3.326;2022-12-18T06:43:36;-4.10;99.90
44990;DHT22;30723;51.206;3.326;2022-12-18T06:46:02;-4.10;99.90
44990;DHT22;30723;51.206;3.326;2022-12-18T06:48:29;-4.10;99.90
44990;DHT22;30723;51.206;3.326;2022-12-18T06:50:54;-4.10;99.90
44990;DHT22;30723;51.206;3.326;2022-12-18T06:53:20;-4.10;99.90
44990;DHT22;30723;51.206;3.326;2022-12-18T06:55:46;-4.10;99.90
44990;DHT22;30723;51.206;3.326;2022-12-18T06:58:11;-3.90;99.90
44990;DHT22;30723;51.206;3.326;2022-12-18T07:00:37;-3.90;99.90
44990;DHT22;30723;51.206;3.326;2022-12-18T07:03:03;-4.00;99.90
44990;DHT22;30723;51.206;3.326;2022-12-18T07:05:28;-4.00;99.90
44990;DHT22;30723;51.206;3.326;2022-12-18T07:07:54;-4.00;99.90
44990;DHT22;30723;51.206;3.326;2022-12-18T07:10:19;-4.00;99.90
44990;DHT22;30723;51.206;3.326;2022-12-18T07:12:45;-3.90;99.90
44990;DHT22;30723;51.206;3.326;2022-12-18T07:15:11;-3.90;99.90
44990;DHT22;30723;51.206;3.326;2022-12-18T07:17:37;-4.00;99.90
44990;DHT22;30723;51.206;3.326;2022-12-18T07:20:02;-3.90;99.90
44990;DHT22;30723;51.206;3.326;2022-12-18T07:22:28;-3.90;99.90
44990;DHT22;30723;51.206;3.326;2022-12-18T07:24:54;-4.00;99.90
44990;DHT22;30723;51.206;3.326;2022-12-18T07:27:20;-3.90;99.90
44990;DHT22;30723;51.206;3.326;2022-12-18T07:29:46;-3.90;99.90
44990;DHT22;30723;51.206;3.326;2022-12-18T07:32:11;-3.80;99.90
44990;DHT22;30723;51.206;3.326;2022-12-18T07:34:37;-3.80;99.90
44990;DHT22;30723;51.206;3.326;2022-12-18T07:37:03;-3.70;99.90
44990;DHT22;30723;51.206;3.326;2022-12-18T07:39:28;-3.70;99.90
44990;DHT22;30723;51.206;3.326;2022-12-18T07:41:54;-3.80;99.90
44990;DHT22;30723;51.206;3.326;2022-12-18T07:44:38;-3.80;99.90
44990;DHT22;30723;51.206;3.326;2022-12-18T07:47:04;-3.80;99.90
44990;DHT22;30723;51.206;3.326;2022-12-18T07:49:29;-3.80;99.90
44990;DHT22;30723;51.206;3.326;2022-12-18T07:51:56;-3.80;99.90
44990;DHT22;30723;51.206;3.326;2022-12-18T07:54:22;-3.80;99.90
44990;DHT22;30723;51.206;3.326;2022-12-18T07:56:48;-3.70;99.90
44990;DHT22;30723;51.206;3.326;2022-12-18T07:59:13;-3.60;99.90
44990;DHT22;30723;51.206;3.326;2022-12-18T08:01:39;-3.60;99.90
44990;DHT22;30723;51.206;3.326;2022-12-18T08:04:05;-3.60;99.90
44990;DHT22;30723;51.206;3.326;2022-12-18T08:06:30;-3.60;99.90
44990;DHT22;30723;51.206;3.326;2022-12-18T08:08:56;-3.50;99.90
44990;DHT22;30723;51.206;3.326;2022-12-18T08:11:22;-3.40;99.90
44990;DHT22;30723;51.206;3.326;2022-12-18T08:13:48;-3.40;99.90
44990;DHT22;30723;51.206;3.326;2022-12-18T08:16:14;-3.30;99.90
44990;DHT22;30723;51.206;3.326;2022-12-18T08:18:39;-3.20;99.90
44990;DHT22;30723;51.206;3.326;2022-12-18T08:21:13;-3.10;99.90
44990;DHT22;30723;51.206;3.326;2022-12-18T08:23:39;-3.10;99.90
44990;DHT22;30723;51.206;3.326;2022-12-18T08:26:05;-3.10;99.90
44990;DHT22;30723;51.206;3.326;2022-12-18T08:28:31;-3.10;99.90
44990;DHT22;30723;51.206;3.326;2022-12-18T08:30:56;-3.00;99.90
44990;DHT22;30723;51.206;3.326;2022-12-18T08:33:22;-2.90;99.90
44990;DHT22;30723;51.206;3.326;2022-12-18T08:35:47;-2.80;99.90
44990;DHT22;30723;51.206;3.326;2022-12-18T08:38:13;-2.80;99.90
44990;DHT22;30723;51.206;3.326;2022-12-18T08:40:39;-2.80;99.90
44990;DHT22;30723;51.206;3.326;2022-12-18T08:43:04;-2.80;99.90
44990;DHT22;30723;51.206;3.326;2022-12-18T08:45:48;-2.80;99.90
44990;DHT22;30723;51.206;3.326;2022-12-18T08:48:14;-2.70;99.90
44990;DHT22;30723;51.206;3.326;2022-12-18T08:50:40;-2.60;99.90
44990;DHT22;30723;51.206;3.326;2022-12-18T08:53:06;-2.50;99.90
44990;DHT22;30723;51.206;3.326;2022-12-18T08:55:31;-2.50;99.90
44990;DHT22;30723;51.206;3.326;2022-12-18T08:57:57;-2.40;99.90
44990;DHT22;30723;51.206;3.326;2022-12-18T09:00:22;-2.50;99.90
44990;DHT22;30723;51.206;3.326;2022-12-18T09:02:48;-2.40;99.90
44990;DHT22;30723;51.206;3.326;2022-12-18T09:05:14;-2.40;99.90
44990;DHT22;30723;51.206;3.326;2022-12-18T09:07:39;-2.40;99.90
44990;DHT22;30723;51.206;3.326;2022-12-18T09:10:05;-2.40;99.90
44990;DHT22;30723;51.206;3.326;2022-12-18T09:12:31;-2.40;99.90
44990;DHT22;30723;51.206;3.326;2022-12-18T09:14:57;-2.30;99.90
44990;DHT22;30723;51.206;3.326;2022-12-18T09:17:22;-2.30;99.90
44990;DHT22;30723;51.206;3.326;2022-12-18T09:19:48;-2.20;99.90
44990;DHT22;30723;51.206;3.326;2022-12-18T09:22:14;-2.20;99.90
44990;DHT22;30723;51.206;3.326;2022-12-18T09:24:40;-2.10;99.90
44990;DHT22;30723;51.206;3.326;2022-12-18T09:27:05;-2.10;99.90
44990;DHT22;30723;51.206;3.326;2022-12-18T09:29:31;-2.00;99.90
44990;DHT22;30723;51.206;3.326;2022-12-18T09:31:57;-2.10;99.90
44990;DHT22;30723;51.206;3.326;2022-12-18T09:34:23;-2.10;99.90
44990;DHT22;30723;51.206;3.326;2022-12-18T09:36:48;-2.00;99.90
44990;DHT22;30723;51.206;3.326;2022-12-18T09:39:14;-1.90;99.90
44990;DHT22;30723;51.206;3.326;2022-12-18T09:41:50;-1.90;99.90
44990;DHT22;30723;51.206;3.326;2022-12-18T09:44:52;-1.80;99.90
44990;DHT22;30723;51.206;3.326;2022-12-18T09:50:01;-1.80;99.90
44990;DHT22;30723;51.206;3.326;2022-12-18T09:52:32;-1.80;99.90
44990;DHT22;30723;51.206;3.326;2022-12-18T09:55:08;-1.70;99.90
44990;DHT22;30723;51.206;3.326;2022-12-18T09:57:37;-1.60;99.90
44990;DHT22;30723;51.206;3.326;2022-12-18T10:02:36;-1.50;99.90
44990;DHT22;30723;51.206;3.326;2022-12-18T10:05:06;-1.50;99.90
44990;DHT22;30723;51.206;3.326;2022-12-18T10:07:36;-1.50;99.90
44990;DHT22;30723;51.206;3.326;2022-12-18T10:10:06;-1.60;99.90
44990;DHT22;30723;51.206;3.326;2022-12-18T10:12:38;-1.50;99.90
44990;DHT22;30723;51.206;3.326;2022-12-18T10:15:14;-1.50;99.90
44990;DHT22;30723;51.206;3.326;2022-12-18T10:17:45;-1.50;99.90
44990;DHT22;30723;51.206;3.326;2022-12-18T10:27:54;-1.40;99.90
44990;DHT22;30723;51.206;3.326;2022-12-18T10:30:22;-1.40;99.90
44990;DHT22;30723;51.206;3.326;2022-12-18T10:32:48;-1.40;99.90
44990;DHT22;30723;51.206;3.326;2022-12-18T10:35:16;-1.30;99.90
44990;DHT22;30723;51.206;3.326;2022-12-18T10:37:58;-1.40;99.90
44990;DHT22;30723;51.206;3.326;2022-12-18T10:40:24;-1.30;99.90
44990;DHT22;30723;51.206;3.326;2022-12-18T10:43:02;-1.30;99.90
44990;DHT22;30723;51.206;3.326;2022-12-18T10:45:28;-1.30;99.90
44990;DHT22;30723;51.206;3.326;2022-12-18T10:47:54;-1.30;99.90
44990;DHT22;30723;51.206;3.326;2022-12-18T10:50:32;-1.20;99.90
44990;DHT22;30723;51.206;3.326;2022-12-18T10:53:01;-1.20;99.90
44990;DHT22;30723;51.206;3.326;2022-12-18T10:55:33;-1.00;99.90
44990;DHT22;30723;51.206;3.326;2022-12-18T11:00:43;-1.10;99.90
44990;DHT22;30723;51.206;3.326;2022-12-18T11:03:28;-1.00;99.90
44990;DHT22;30723;51.206;3.326;2022-12-18T11:06:02;-0.90;99.90
44990;DHT22;30723;51.206;3.326;2022-12-18T11:08:28;-0.80;99.90
44990;DHT22;30723;51.206;3.326;2022-12-18T11:10:53;-0.70;99.90
44990;DHT22;30723;51.206;3.326;2022-12-18T11:13:23;-0.70;99.90
44990;DHT22;30723;51.206;3.326;2022-12-18T11:15:49;-0.70;99.90
44990;DHT22;30723;51.206;3.326;2022-12-18T11:20:51;-0.70;99.90
44990;DHT22;30723;51.206;3.326;2022-12-18T11:23:17;-0.70;99.90
44990;DHT22;30723;51.206;3.326;2022-12-18T11:25:54;-0.70;99.90
44990;DHT22;30723;51.206;3.326;2022-12-18T11:28:28;-0.60;99.90
44990;DHT22;30723;51.206;3.326;2022-12-18T11:31:12;-0.50;99.90
44990;DHT22;30723;51.206;3.326;2022-12-18T11:33:42;-0.50;99.90
44990;DHT22;30723;51.206;3.326;2022-12-18T11:36:09;-0.50;99.90
44990;DHT22;30723;51.206;3.326;2022-12-18T11:38:36;-0.50;99.90
44990;DHT22;30723;51.206;3.326;2022-12-18T11:46:07;-0.40;99.90
44990;DHT22;30723;51.206;3.326;2022-12-18T11:48:36;-0.40;99.90
44990;DHT22;30723;51.206;3.326;2022-12-18T11:51:03;-0.30;99.90
44990;DHT22;30723;51.206;3.326;2022-12-18T11:53:30;-0.30;99.90
44990;DHT22;30723;51.206;3.326;2022-12-18T11:58:32;-0.30;99.90
44990;DHT22;30723;51.206;3.326;2022-12-18T12:16:24;0.10;99.90
44990;DHT22;30723;51.206;3.326;2022-12-18T12:21:40;0.20;99.90
44990;DHT22;30723;51.206;3.326;2022-12-18T12:36:50;0.20;99.90
44990;DHT22;30723;51.206;3.326;2022-12-18T12:39:18;0.30;99.90
44990;DHT22;30723;51.206;3.326;2022-12-18T12:41:46;0.40;99.90
44990;DHT22;30723;51.206;3.326;2022-12-18T12:44:32;0.40;99.90
44990;DHT22;30723;51.206;3.326;2022-12-18T12:46:59;0.40;99.90
44990;DHT22;30723;51.206;3.326;2022-12-18T12:49:26;0.40;99.90
44990;DHT22;30723;51.206;3.326;2022-12-18T12:51:58;0.30;99.90
44990;DHT22;30723;51.206;3.326;2022-12-18T12:54:38;0.20;99.90
44990;DHT22;30723;51.206;3.326;2022-12-18T12:57:21;0.20;99.90
44990;DHT22;30723;51.206;3.326;2022-12-18T13:07:37;0.30;99.90
44990;DHT22;30723;51.206;3.326;2022-12-18T13:10:23;0.20;99.90
44990;DHT22;30723;51.206;3.326;2022-12-18T13:17:49;0.40;99.90
44990;DHT22;30723;51.206;3.326;2022-12-18T13:20:32;0.40;99.90
44990;DHT22;30723;51.206;3.326;2022-12-18T13:22:58;0.40;99.90
44990;DHT22;30723;51.206;3.326;2022-12-18T13:25:27;0.40;99.90
44990;DHT22;30723;51.206;3.326;2022-12-18T13:27:58;0.30;99.90
44990;DHT22;30723;51.206;3.326;2022-12-18T13:35:55;0.40;99.90
44990;DHT22;30723;51.206;3.326;2022-12-18T13:40:58;0.40;99.90
44990;DHT22;30723;51.206;3.326;2022-12-18T13:43:26;0.40;99.90
44990;DHT22;30723;51.206;3.326;2022-12-18T13:48:24;0.40;99.90
44990;DHT22;30723;51.206;3.326;2022-12-18T13:50:52;0.30;99.90
44990;DHT22;30723;51.206;3.326;2022-12-18T13:53:22;0.40;99.90
44990;DHT22;30723;51.206;3.326;2022-12-18T13:55:48;0.40;99.90
44990;DHT22;30723;51.206;3.326;2022-12-18T13:58:14;0.40;99.90
44990;DHT22;30723;51.206;3.326;2022-12-18T14:00:43;0.30;99.90
44990;DHT22;30723;51.206;3.326;2022-12-18T14:03:20;0.20;99.90
44990;DHT22;30723;51.206;3.326;2022-12-18T14:05:46;0.30;99.90
44990;DHT22;30723;51.206;3.326;2022-12-18T14:08:17;0.40;99.90
44990;DHT22;30723;51.206;3.326;2022-12-18T14:10:44;0.40;99.90
44990;DHT22;30723;51.206;3.326;2022-12-18T14:13:10;0.40;99.90
44990;DHT22;30723;51.206;3.326;2022-12-18T14:15:40;0.30;99.90
44990;DHT22;30723;51.206;3.326;2022-12-18T14:18:15;0.30;99.90
44990;DHT22;30723;51.206;3.326;2022-12-18T14:20:44;0.30;99.90
44990;DHT22;30723;51.206;3.326;2022-12-18T14:25:53;0.40;99.90
44990;DHT22;30723;51.206;3.326;2022-12-18T14:28:19;0.40;99.90
44990;DHT22;30723;51.206;3.326;2022-12-18T14:30:47;0.30;99.90
44990;DHT22;30723;51.206;3.326;2022-12-18T14:33:19;0.30;99.90
44990;DHT22;30723;51.206;3.326;2022-12-18T14:35:52;0.30;99.90
44990;DHT22;30723;51.206;3.326;2022-12-18T14:41:00;0.20;99.90
44990;DHT22;30723;51.206;3.326;2022-12-18T14:43:27;0.30;99.90
44990;DHT22;30723;51.206;3.326;2022-12-18T14:45:53;0.30;99.90
44990;DHT22;30723;51.206;3.326;2022-12-18T14:48:20;0.30;99.90
44990;DHT22;30723;51.206;3.326;2022-12-18T14:50:54;0.40;99.90
44990;DHT22;30723;51.206;3.326;2022-12-18T14:53:27;0.30;99.90
44990;DHT22;30723;51.206;3.326;2022-12-18T14:55:56;0.40;99.90
44990;DHT22;30723;51.206;3.326;2022-12-18T14:58:21;0.40;99.90
44990;DHT22;30723;51.206;3.326;2022-12-18T15:00:47;0.40;99.90
44990;DHT22;30723;51.206;3.326;2022-12-18T15:03:15;0.40;99.90
44990;DHT22;30723;51.206;3.326;2022-12-18T15:05:43;0.40;99.90
44990;DHT22;30723;51.206;3.326;2022-12-18T15:08:27;0.40;99.90
44990;DHT22;30723;51.206;3.326;2022-12-18T15:10:53;0.50;99.90
44990;DHT22;30723;51.206;3.326;2022-12-18T15:13:23;0.50;99.90
44990;DHT22;30723;51.206;3.326;2022-12-18T15:15:49;0.50;99.90
44990;DHT22;30723;51.206;3.326;2022-12-18T15:18:16;0.50;99.90
44990;DHT22;30723;51.206;3.326;2022-12-18T15:20:52;0.50;99.90
44990;DHT22;30723;51.206;3.326;2022-12-18T15:26:21;0.40;99.90
44990;DHT22;30723;51.206;3.326;2022-12-18T15:28:53;0.40;99.90
44990;DHT22;30723;51.206;3.326;2022-12-18T15:31:22;0.40;99.90
44990;DHT22;30723;51.206;3.326;2022-12-18T15:36:18;0.50;99.90
44990;DHT22;30723;51.206;3.326;2022-12-18T15:38:48;0.50;99.90
44990;DHT22;30723;51.206;3.326;2022-12-18T15:41:15;0.50;99.90
44990;DHT22;30723;51.206;3.326;2022-12-18T15:43:40;0.50;99.90
44990;DHT22;30723;51.206;3.326;2022-12-18T15:46:09;0.50;99.90
44990;DHT22;30723;51.206;3.326;2022-12-18T15:48:39;0.60;99.90
44990;DHT22;30723;51.206;3.326;2022-12-18T15:51:08;0.60;99.90
44990;DHT22;30723;51.206;3.326;2022-12-18T15:53:34;0.60;99.90
44990;DHT22;30723;51.206;3.326;2022-12-18T15:56:00;0.50;99.90
44990;DHT22;30723;51.206;3.326;2022-12-18T15:58:44;0.60;99.90
44990;DHT22;30723;51.206;3.326;2022-12-18T16:01:10;0.60;99.90
44990;DHT22;30723;51.206;3.326;2022-12-18T16:03:36;0.60;99.90
44990;DHT22;30723;51.206;3.326;2022-12-18T16:06:01;0.60;99.90
44990;DHT22;30723;51.206;3.326;2022-12-18T16:08:30;0.60;99.90
44990;DHT22;30723;51.206;3.326;2022-12-18T16:10:56;0.60;99.90
44990;DHT22;30723;51.206;3.326;2022-12-18T16:13:22;0.60;99.90
44990;DHT22;30723;51.206;3.326;2022-12-18T16:15:48;0.60;99.90
44990;DHT22;30723;51.206;3.326;2022-12-18T16:18:14;0.50;99.90
44990;DHT22;30723;51.206;3.326;2022-12-18T16:20:40;0.50;99.90
44990;DHT22;30723;51.206;3.326;2022-12-18T16:23:06;0.60;99.90
44990;DHT22;30723;51.206;3.326;2022-12-18T16:25:31;0.60;99.90
44990;DHT22;30723;51.206;3.326;2022-12-18T16:27:57;0.60;99.90
44990;DHT22;30723;51.206;3.326;2022-12-18T16:30:29;0.60;99.90
44990;DHT22;30723;51.206;3.326;2022-12-18T16:32:56;0.60;99.90
44990;DHT22;30723;51.206;3.326;2022-12-18T16:35:21;0.60;99.90
44990;DHT22;30723;51.206;3.326;2022-12-18T16:37:47;0.70;99.90
44990;DHT22;30723;51.206;3.326;2022-12-18T16:40:13;0.70;99.90
44990;DHT22;30723;51.206;3.326;2022-12-18T16:42:40;0.70;99.90
44990;DHT22;30723;51.206;3.326;2022-12-18T16:45:07;0.60;99.90
44990;DHT22;30723;51.206;3.326;2022-12-18T16:47:33;0.70;99.90
44990;DHT22;30723;51.206;3.326;2022-12-18T16:49:58;0.80;99.90
44990;DHT22;30723;51.206;3.326;2022-12-18T16:52:24;0.80;99.90
44990;DHT22;30723;51.206;3.326;2022-12-18T16:54:50;0.80;99.90
44990;DHT22;30723;51.206;3.326;2022-12-18T16:57:17;0.90;99.90
44990;DHT22;30723;51.206;3.326;2022-12-18T16:59:44;0.90;99.90
44990;DHT22;30723;51.206;3.326;2022-12-18T17:02:20;0.90;99.90
44990;DHT22;30723;51.206;3.326;2022-12-18T17:04:46;0.90;99.90
44990;DHT22;30723;51.206;3.326;2022-12-18T17:07:12;1.00;99.90
44990;DHT22;30723;51.206;3.326;2022-12-18T17:09:38;1.00;99.90
44990;DHT22;30723;51.206;3.326;2022-12-18T17:12:03;1.10;99.90
44990;DHT22;30723;51.206;3.326;2022-12-18T17:14:29;1.10;99.90
44990;DHT22;30723;51.206;3.326;2022-12-18T17:16:55;1.10;99.90
44990;DHT22;30723;51.206;3.326;2022-12-18T17:19:24;1.20;99.90
44990;DHT22;30723;51.206;3.326;2022-12-18T17:21:50;1.20;99.90
44990;DHT22;30723;51.206;3.326;2022-12-18T17:24:16;1.20;99.90
44990;DHT22;30723;51.206;3.326;2022-12-18T17:26:42;1.20;99.90
44990;DHT22;30723;51.206;3.326;2022-12-18T17:29:09;1.20;99.90
44990;DHT22;30723;51.206;3.326;2022-12-18T17:31:37;1.20;99.90
44990;DHT22;30723;51.206;3.326;2022-12-18T17:34:02;1.20;99.90
44990;DHT22;30723;51.206;3.326;2022-12-18T17:36:28;1.20;99.90
44990;DHT22;30723;51.206;3.326;2022-12-18T17:38:57;1.20;99.90
44990;DHT22;30723;51.206;3.326;2022-12-18T17:41:24;1.20;99.90
44990;DHT22;30723;51.206;3.326;2022-12-18T17:43:53;1.30;99.90
44990;DHT22;30723;51.206;3.326;2022-12-18T17:46:19;1.30;99.90